| Date | Time | Temp. (oF) | Dew Point (oF) | Rel. Hum. (%) | Press. (in.) | Wind Dir. | Wind Speed (mph) | Hourly Rainfall (in.) |
|
|---|---|---|---|---|---|---|---|---|---|
| 1 | 02/14 | 00:00 | 33 | 20 | 59 | 30.32 | NNE | 2 | 0.00 |
| 2 | miss | miss | miss | miss | miss | miss | miss | miss | |
| 3 | 02/13 | 23:14 | 33 | 20 | 60 | 30.31 | ENE | 2 | 0.00 |
| 4 | miss | miss | miss | miss | miss | miss | miss | miss | |
| 5 | 02/13 | 23:12 | 33 | 20 | 59 | 30.31 | ENE | 3 | 0.00 |
| 6 | miss | miss | miss | miss | miss | miss | miss | miss | |
| 7 | 02/13 | 23:10 | 33 | 19 | 58 | 30.31 | E | 4 | 0.00 |
| 8 | miss | miss | miss | miss | miss | miss | miss | miss | |
| 9 | 02/13 | 23:08 | 33 | 19 | 57 | 30.31 | E | 3 | 0.00 |
| 10 | miss | miss | miss | miss | miss | miss | miss | miss | |
| 11 | 02/13 | 23:06 | 33 | 18 | 56 | 30.32 | E | 3 | 0.00 |
| 12 | miss | miss | miss | miss | miss | miss | miss | miss | |
| 13 | 02/13 | 23:04 | 33 | 18 | 56 | 30.32 | E | 3 | 0.00 |
| 14 | miss | miss | miss | miss | miss | miss | miss | miss | |
| 15 | 02/13 | 23:02 | 33 | 18 | 56 | 30.32 | ENE | 3 | 0.00 |
| 16 | miss | miss | miss | miss | miss | miss | miss | miss | |
| 17 | 02/13 | 23:00 | 33 | 18 | 56 | 30.33 | ENE | 1 | 0.00 |
| 18 | 02/13 | 22:59 | 33 | 18 | 56 | 30.33 | NE | 0 | 0.00 |
| 19 | 02/13 | 22:58 | 33 | 18 | 56 | 30.33 | NE | 1 | 0.00 |
| 20 | 02/13 | 22:57 | 33 | 18 | 56 | 30.33 | ENE | 1 | 0.00 |
| 21 | 02/13 | 22:56 | 33 | 18 | 56 | 30.33 | ENE | 1 | 0.00 |
| 22 | 02/13 | 22:55 | 33 | 18 | 56 | 30.33 | ENE | 0 | 0.00 |
| 23 | miss | miss | miss | miss | miss | miss | miss | miss | |
| 24 | 02/13 | 22:53 | 33 | 18 | 56 | 30.33 | ENE | 1 | 0.00 |
| 25 | miss | miss | miss | miss | miss | miss | miss | miss | |
| 26 | 02/13 | 22:52 | 33 | 18 | 56 | 30.33 | ENE | 0 | 0.00 |
| 27 | 02/13 | 22:00 | 34 | 19 | 54 | 30.33 | E | 1 | 0.00 |
| 28 | 02/13 | 21:00 | 34 | 19 | 56 | 30.32 | ENE | 3 | 0.00 |
| 29 | 02/13 | 20:00 | 35 | 18 | 51 | 30.32 | NE | 0 | 0.00 |
| 30 | 02/13 | 19:00 | 36 | 16 | 44 | 30.29 | SSE | 0 | 0.00 |
| 31 | 02/13 | 18:00 | 37 | 18 | 46 | 30.27 | ESE | 0 | 0.00 |
| 32 | 02/13 | 17:00 | 39 | 17 | 41 | 30.25 | S | 4 | 0.00 |
| 33 | 02/13 | 16:00 | 40 | 16 | 38 | 30.23 | NNE | 5 | 0.00 |
| 34 | 02/13 | 15:00 | 42 | 17 | 37 | 30.20 | NE | 7 | 0.00 |
| 35 | 02/13 | 14:00 | 41 | 18 | 41 | 30.21 | WSW | 4 | 0.00 |
| 36 | 02/13 | 13:00 | 40 | 18 | 41 | 30.21 | NNW | 4 | 0.00 |
| 37 | 02/13 | 12:00 | 39 | 19 | 46 | 30.23 | WSW | 6 | 0.00 |
| 38 | 02/13 | 11:00 | 37 | 17 | 45 | 30.22 | NE | 5 | 0.00 |
| 39 | 02/13 | 10:00 | 36 | 20 | 53 | 30.20 | N | 10 | 0.00 |
| 40 | 02/13 | 09:00 | 34 | 23 | 66 | 30.18 | NNW | 5 | 0.00 |
| 41 | 02/13 | 08:00 | 31 | 23 | 74 | 30.15 | SSE | 1 | 0.00 |
| 42 | 02/13 | 07:00 | 30 | 21 | 71 | 30.10 | SW | 0 | 0.00 |
| 43 | 02/13 | 06:00 | 32 | 22 | 68 | 30.06 | W | 4 | 0.00 |
| 44 | 02/13 | 05:00 | 30 | 21 | 70 | 30.04 | WSW | 4 | 0.00 |
| 45 | 02/13 | 04:00 | 29 | 21 | 72 | 29.98 | SSW | 1 | 0.00 |
| 46 | 02/13 | 03:00 | 31 | 21 | 67 | 29.96 | NW | 3 | 0.00 |
| 47 | 02/13 | 02:00 | 32 | 21 | 66 | 29.97 | WSW | 0 | 0.00 |
| 48 | 02/13 | 01:00 | 34 | 21 | 61 | 29.95 | W | 3 | 0.00 |
| 49 | 02/13 | 00:00 | 32 | 24 | 75 | 29.93 | WNW | 7 | 0.00 |
| 50 | 02/12 | 23:00 | 29 | 24 | 84 | 29.91 | SW | 2 | 0.00 |
| 51 | 02/12 | 22:00 | 31 | 24 | 78 | 29.90 | WSW | 0 | 0.00 |
| 52 | 02/12 | 21:00 | 34 | 26 | 74 | 29.88 | SW | 1 | 0.00 |
| 53 | 02/12 | 20:00 | 35 | 26 | 71 | 29.86 | WSW | 1 | 0.00 |
| 54 | 02/12 | 19:00 | 37 | 27 | 68 | 29.85 | WNW | 3 | 0.00 |
| 55 | 02/12 | 18:00 | 39 | 27 | 64 | 29.80 | WNW | 8 | 0.00 |
| 56 | 02/12 | 17:00 | 41 | 28 | 62 | 29.76 | W | 12 | 0.00 |
| 57 | 02/12 | 16:00 | 44 | 30 | 59 | 29.72 | WNW | 12 | 0.00 |
| 58 | 02/12 | 15:00 | 43 | 30 | 61 | 29.71 | W | 7 | 0.00 |
| 59 | 02/12 | 14:00 | 41 | 30 | 66 | 29.73 | SW | 4 | 0.00 |
| 60 | 02/12 | 13:00 | 40 | 29 | 66 | 29.74 | SSW | 7 | 0.00 |
| 61 | 02/12 | 12:00 | 40 | 28 | 63 | 29.75 | W | 8 | 0.00 |
| 62 | 02/12 | 11:00 | 39 | 27 | 63 | 29.78 | WSW | 13 | 0.00 |
| 63 | 02/12 | 10:00 | 36 | 25 | 66 | 29.79 | SW | 4 | 0.00 |
| 64 | 02/12 | 09:00 | 33 | 25 | 73 | 29.82 | SW | 7 | 0.00 |
| 65 | 02/12 | 08:00 | 31 | 23 | 74 | 29.82 | SSW | 7 | 0.00 |
| 66 | 02/12 | 07:00 | 31 | 23 | 74 | 29.82 | SSW | 4 | 0.00 |
| 67 | 02/12 | 06:00 | 30 | 23 | 75 | 29.83 | SW | 4 | 0.00 |
| 68 | 02/12 | 05:00 | 29 | 22 | 77 | 29.82 | SW | 8 | 0.00 |
| 69 | 02/12 | 04:00 | 28 | 22 | 78 | 29.81 | W | 7 | 0.00 |
| 70 | 02/12 | 03:00 | 27 | 20 | 75 | 29.82 | SW | 8 | 0.00 |
| 71 | 02/12 | 02:00 | 26 | 19 | 75 | 29.84 | WSW | 6 | 0.00 |
| 72 | 02/12 | 01:00 | 26 | 18 | 73 | 29.85 | SW | 5 | 0.00 |
| 73 | 02/12 | 00:00 | 27 | 18 | 70 | 29.86 | WNW | 4 | 0.00 |